sensor_id;sensor_type;location;lat;lon;timestamp;temperature;humidity
2459;DHT22;1241;50.920;6.936;2022-12-10T00:01:30;1.50;99.90
2459;DHT22;1241;50.920;6.936;2022-12-10T00:03:56;1.50;99.90
2459;DHT22;1241;50.920;6.936;2022-12-10T00:06:24;1.50;99.90
2459;DHT22;1241;50.920;6.936;2022-12-10T00:08:51;1.50;99.90
2459;DHT22;1241;50.920;6.936;2022-12-10T00:11:18;1.40;99.90
2459;DHT22;1241;50.920;6.936;2022-12-10T00:13:45;1.40;99.90
2459;DHT22;1241;50.920;6.936;2022-12-10T00:16:13;1.30;99.90
2459;DHT22;1241;50.920;6.936;2022-12-10T00:18:39;1.30;99.90
2459;DHT22;1241;50.920;6.936;2022-12-10T00:21:08;1.20;99.90
2459;DHT22;1241;50.920;6.936;2022-12-10T00:23:35;1.10;99.90
2459;DHT22;1241;50.920;6.936;2022-12-10T00:26:12;0.90;99.90
2459;DHT22;1241;50.920;6.936;2022-12-10T00:28:39;0.80;99.90
2459;DHT22;1241;50.920;6.936;2022-12-10T00:31:09;0.70;99.90
2459;DHT22;1241;50.920;6.936;2022-12-10T00:33:36;0.70;99.90
2459;DHT22;1241;50.920;6.936;2022-12-10T00:36:09;0.70;99.90
2459;DHT22;1241;50.920;6.936;2022-12-10T00:38:36;0.70;99.90
2459;DHT22;1241;50.920;6.936;2022-12-10T00:41:03;0.70;99.90
2459;DHT22;1241;50.920;6.936;2022-12-10T00:43:29;0.70;99.90
2459;DHT22;1241;50.920;6.936;2022-12-10T00:45:54;0.60;99.90
2459;DHT22;1241;50.920;6.936;2022-12-10T00:48:21;0.50;99.90
2459;DHT22;1241;50.920;6.936;2022-12-10T00:51:07;0.50;99.90
2459;DHT22;1241;50.920;6.936;2022-12-10T00:53:36;0.50;99.90
2459;DHT22;1241;50.920;6.936;2022-12-10T00:56:03;0.50;99.90
2459;DHT22;1241;50.920;6.936;2022-12-10T00:58:31;0.40;99.90
2459;DHT22;1241;50.920;6.936;2022-12-10T01:03:46;0.40;99.90
2459;DHT22;1241;50.920;6.936;2022-12-10T01:06:19;0.40;99.90
2459;DHT22;1241;50.920;6.936;2022-12-10T01:08:45;0.40;99.90
2459;DHT22;1241;50.920;6.936;2022-12-10T01:11:14;0.30;99.90
2459;DHT22;1241;50.920;6.936;2022-12-10T01:13:40;0.30;99.90
2459;DHT22;1241;50.920;6.936;2022-12-10T01:16:07;0.30;99.90
2459;DHT22;1241;50.920;6.936;2022-12-10T01:18:35;0.30;99.90
2459;DHT22;1241;50.920;6.936;2022-12-10T01:21:03;0.20;99.90
2459;DHT22;1241;50.920;6.936;2022-12-10T01:23:32;0.20;99.90
2459;DHT22;1241;50.920;6.936;2022-12-10T01:26:03;0.20;99.90
2459;DHT22;1241;50.920;6.936;2022-12-10T01:28:31;0.20;99.90
2459;DHT22;1241;50.920;6.936;2022-12-10T01:31:03;0.20;99.90
2459;DHT22;1241;50.920;6.936;2022-12-10T01:33:30;0.20;99.90
2459;DHT22;1241;50.920;6.936;2022-12-10T01:36:08;0.20;99.90
2459;DHT22;1241;50.920;6.936;2022-12-10T01:38:35;0.10;99.90
2459;DHT22;1241;50.920;6.936;2022-12-10T01:41:03;0.10;99.90
2459;DHT22;1241;50.920;6.936;2022-12-10T01:43:55;0.10;99.90
2459;DHT22;1241;50.920;6.936;2022-12-10T01:46:23;0.10;99.90
2459;DHT22;1241;50.920;6.936;2022-12-10T01:48:50;0.10;99.90
2459;DHT22;1241;50.920;6.936;2022-12-10T01:51:17;0.20;99.90
2459;DHT22;1241;50.920;6.936;2022-12-10T01:53:43;0.20;99.90
2459;DHT22;1241;50.920;6.936;2022-12-10T01:56:10;0.30;99.90
2459;DHT22;1241;50.920;6.936;2022-12-10T01:58:37;0.40;99.90
2459;DHT22;1241;50.920;6.936;2022-12-10T02:01:13;0.40;99.90
2459;DHT22;1241;50.920;6.936;2022-12-10T02:03:56;0.50;99.90
2459;DHT22;1241;50.920;6.936;2022-12-10T02:06:54;0.50;99.90
2459;DHT22;1241;50.920;6.936;2022-12-10T02:12:23;0.50;99.90
2459;DHT22;1241;50.920;6.936;2022-12-10T02:17:49;0.40;99.90
2459;DHT22;1241;50.920;6.936;2022-12-10T02:20:24;0.30;99.90
2459;DHT22;1241;50.920;6.936;2022-12-10T02:22:53;0.20;99.90
2459;DHT22;1241;50.920;6.936;2022-12-10T02:25:26;-0.10;99.90
2459;DHT22;1241;50.920;6.936;2022-12-10T02:30:42;-0.20;99.90
2459;DHT22;1241;50.920;6.936;2022-12-10T02:33:09;-0.10;99.90
2459;DHT22;1241;50.920;6.936;2022-12-10T02:35:36;-0.10;99.90
2459;DHT22;1241;50.920;6.936;2022-12-10T02:38:18;-0.10;99.90
2459;DHT22;1241;50.920;6.936;2022-12-10T02:40:49;-0.10;99.90
2459;DHT22;1241;50.920;6.936;2022-12-10T02:43:17;-0.20;99.90
2459;DHT22;1241;50.920;6.936;2022-12-10T02:45:46;-0.20;99.90
2459;DHT22;1241;50.920;6.936;2022-12-10T02:48:13;-0.20;99.90
2459;DHT22;1241;50.920;6.936;2022-12-10T02:50:42;-0.20;99.90
2459;DHT22;1241;50.920;6.936;2022-12-10T02:53:07;-0.20;99.90
2459;DHT22;1241;50.920;6.936;2022-12-10T02:55:47;-0.20;99.90
2459;DHT22;1241;50.920;6.936;2022-12-10T02:58:27;-0.30;99.90
2459;DHT22;1241;50.920;6.936;2022-12-10T03:01:06;-0.10;99.90
2459;DHT22;1241;50.920;6.936;2022-12-10T03:04:00;-0.10;99.90
2459;DHT22;1241;50.920;6.936;2022-12-10T03:06:38;-0.10;99.90
2459;DHT22;1241;50.920;6.936;2022-12-10T03:09:09;-0.10;99.90
2459;DHT22;1241;50.920;6.936;2022-12-10T03:11:38;-0.10;99.90
2459;DHT22;1241;50.920;6.936;2022-12-10T03:14:17;0.10;99.90
2459;DHT22;1241;50.920;6.936;2022-12-10T03:16:53;0.20;99.90
2459;DHT22;1241;50.920;6.936;2022-12-10T03:19:21;0.30;99.90
2459;DHT22;1241;50.920;6.936;2022-12-10T03:21:50;0.40;99.90
2459;DHT22;1241;50.920;6.936;2022-12-10T03:24:18;0.50;99.90
2459;DHT22;1241;50.920;6.936;2022-12-10T03:26:47;0.60;99.90
2459;DHT22;1241;50.920;6.936;2022-12-10T03:29:23;0.50;99.90
2459;DHT22;1241;50.920;6.936;2022-12-10T03:31:50;0.60;99.90
2459;DHT22;1241;50.920;6.936;2022-12-10T03:34:18;0.70;99.90
2459;DHT22;1241;50.920;6.936;2022-12-10T03:36:44;0.70;99.90
2459;DHT22;1241;50.920;6.936;2022-12-10T03:39:10;0.70;99.90
2459;DHT22;1241;50.920;6.936;2022-12-10T03:41:36;0.70;99.90
2459;DHT22;1241;50.920;6.936;2022-12-10T03:44:02;0.80;99.90
2459;DHT22;1241;50.920;6.936;2022-12-10T03:46:30;0.80;99.90
2459;DHT22;1241;50.920;6.936;2022-12-10T03:48:59;0.80;99.90
2459;DHT22;1241;50.920;6.936;2022-12-10T03:51:24;0.90;99.90
2459;DHT22;1241;50.920;6.936;2022-12-10T03:53:50;0.90;99.90
2459;DHT22;1241;50.920;6.936;2022-12-10T03:56:17;0.90;99.90
2459;DHT22;1241;50.920;6.936;2022-12-10T03:58:44;1.00;99.90
2459;DHT22;1241;50.920;6.936;2022-12-10T04:01:09;0.90;99.90
2459;DHT22;1241;50.920;6.936;2022-12-10T04:03:36;1.00;99.90
2459;DHT22;1241;50.920;6.936;2022-12-10T04:06:04;1.20;99.90
2459;DHT22;1241;50.920;6.936;2022-12-10T04:08:30;1.20;99.90
2459;DHT22;1241;50.920;6.936;2022-12-10T04:11:03;1.20;99.90
2459;DHT22;1241;50.920;6.936;2022-12-10T04:13:31;1.20;99.90
2459;DHT22;1241;50.920;6.936;2022-12-10T04:16:16;1.10;99.90
2459;DHT22;1241;50.920;6.936;2022-12-10T04:19:14;1.10;99.90
2459;DHT22;1241;50.920;6.936;2022-12-10T04:21:42;1.30;99.90
2459;DHT22;1241;50.920;6.936;2022-12-10T04:24:29;1.30;99.90
2459;DHT22;1241;50.920;6.936;2022-12-10T04:29:42;1.50;99.90
2459;DHT22;1241;50.920;6.936;2022-12-10T04:32:08;1.60;99.90
2459;DHT22;1241;50.920;6.936;2022-12-10T04:34:34;1.60;99.90
2459;DHT22;1241;50.920;6.936;2022-12-10T04:37:00;1.70;99.90
2459;DHT22;1241;50.920;6.936;2022-12-10T04:39:26;1.70;99.90
2459;DHT22;1241;50.920;6.936;2022-12-10T04:41:51;1.60;99.90
2459;DHT22;1241;50.920;6.936;2022-12-10T04:44:18;1.70;99.90
2459;DHT22;1241;50.920;6.936;2022-12-10T04:46:44;1.70;99.90
2459;DHT22;1241;50.920;6.936;2022-12-10T04:49:10;1.80;99.90
2459;DHT22;1241;50.920;6.936;2022-12-10T04:51:36;1.70;99.90
2459;DHT22;1241;50.920;6.936;2022-12-10T04:54:03;1.80;99.90
2459;DHT22;1241;50.920;6.936;2022-12-10T04:56:29;1.70;99.90
2459;DHT22;1241;50.920;6.936;2022-12-10T04:58:59;1.70;99.90
2459;DHT22;1241;50.920;6.936;2022-12-10T05:01:25;1.70;99.90
2459;DHT22;1241;50.920;6.936;2022-12-10T05:03:51;1.70;99.90
2459;DHT22;1241;50.920;6.936;2022-12-10T05:06:19;1.70;99.90
2459;DHT22;1241;50.920;6.936;2022-12-10T05:08:45;1.80;99.90
2459;DHT22;1241;50.920;6.936;2022-12-10T05:11:14;1.90;99.90
2459;DHT22;1241;50.920;6.936;2022-12-10T05:13:41;1.90;99.90
2459;DHT22;1241;50.920;6.936;2022-12-10T05:16:10;1.90;99.90
2459;DHT22;1241;50.920;6.936;2022-12-10T05:18:36;2.00;99.90
2459;DHT22;1241;50.920;6.936;2022-12-10T05:21:04;1.90;99.90
2459;DHT22;1241;50.920;6.936;2022-12-10T05:23:32;1.90;99.90
2459;DHT22;1241;50.920;6.936;2022-12-10T05:25:59;2.00;99.90
2459;DHT22;1241;50.920;6.936;2022-12-10T05:28:25;2.00;99.90
2459;DHT22;1241;50.920;6.936;2022-12-10T05:30:51;2.10;99.90
2459;DHT22;1241;50.920;6.936;2022-12-10T05:33:17;2.10;99.90
2459;DHT22;1241;50.920;6.936;2022-12-10T05:35:43;2.20;99.90
2459;DHT22;1241;50.920;6.936;2022-12-10T05:38:16;2.20;99.90
2459;DHT22;1241;50.920;6.936;2022-12-10T05:40:41;2.20;99.90
2459;DHT22;1241;50.920;6.936;2022-12-10T05:43:07;2.20;99.90
2459;DHT22;1241;50.920;6.936;2022-12-10T05:45:33;2.30;99.90
2459;DHT22;1241;50.920;6.936;2022-12-10T05:47:58;2.30;99.90
2459;DHT22;1241;50.920;6.936;2022-12-10T05:50:24;2.30;99.90
2459;DHT22;1241;50.920;6.936;2022-12-10T05:52:51;2.40;99.90
2459;DHT22;1241;50.920;6.936;2022-12-10T05:55:17;2.40;99.90
2459;DHT22;1241;50.920;6.936;2022-12-10T05:57:43;2.40;99.90
2459;DHT22;1241;50.920;6.936;2022-12-10T06:00:09;2.40;99.90
2459;DHT22;1241;50.920;6.936;2022-12-10T06:02:37;2.40;99.90
2459;DHT22;1241;50.920;6.936;2022-12-10T06:05:03;2.40;99.90
2459;DHT22;1241;50.920;6.936;2022-12-10T06:07:29;2.40;99.90
2459;DHT22;1241;50.920;6.936;2022-12-10T06:09:56;2.40;99.90
2459;DHT22;1241;50.920;6.936;2022-12-10T06:12:25;2.30;99.90
2459;DHT22;1241;50.920;6.936;2022-12-10T06:14:51;2.30;99.90
2459;DHT22;1241;50.920;6.936;2022-12-10T06:17:16;2.40;99.90
2459;DHT22;1241;50.920;6.936;2022-12-10T06:19:42;2.40;99.90
2459;DHT22;1241;50.920;6.936;2022-12-10T06:22:08;2.40;99.90
2459;DHT22;1241;50.920;6.936;2022-12-10T06:24:33;2.50;99.90
2459;DHT22;1241;50.920;6.936;2022-12-10T06:26:59;2.60;99.90
2459;DHT22;1241;50.920;6.936;2022-12-10T06:29:25;2.50;99.90
2459;DHT22;1241;50.920;6.936;2022-12-10T06:31:51;2.50;99.90
2459;DHT22;1241;50.920;6.936;2022-12-10T06:34:16;2.50;99.90
2459;DHT22;1241;50.920;6.936;2022-12-10T06:36:42;2.60;99.90
2459;DHT22;1241;50.920;6.936;2022-12-10T06:39:08;2.60;99.90
2459;DHT22;1241;50.920;6.936;2022-12-10T06:41:33;2.50;99.90
2459;DHT22;1241;50.920;6.936;2022-12-10T06:43:59;2.50;99.90
2459;DHT22;1241;50.920;6.936;2022-12-10T06:46:26;2.60;99.90
2459;DHT22;1241;50.920;6.936;2022-12-10T06:48:55;2.60;99.90
2459;DHT22;1241;50.920;6.936;2022-12-10T06:51:20;2.60;99.90
2459;DHT22;1241;50.920;6.936;2022-12-10T06:53:46;2.60;99.90
2459;DHT22;1241;50.920;6.936;2022-12-10T06:56:17;2.60;99.90
2459;DHT22;1241;50.920;6.936;2022-12-10T06:58:44;2.60;99.90
2459;DHT22;1241;50.920;6.936;2022-12-10T07:01:21;2.60;99.90
2459;DHT22;1241;50.920;6.936;2022-12-10T07:03:49;2.60;99.90
2459;DHT22;1241;50.920;6.936;2022-12-10T07:06:15;2.60;99.90
2459;DHT22;1241;50.920;6.936;2022-12-10T07:08:40;2.60;99.90
2459;DHT22;1241;50.920;6.936;2022-12-10T07:11:09;2.60;99.90
2459;DHT22;1241;50.920;6.936;2022-12-10T07:13:35;2.50;99.90
2459;DHT22;1241;50.920;6.936;2022-12-10T07:16:01;2.40;99.90
2459;DHT22;1241;50.920;6.936;2022-12-10T07:18:27;2.30;99.90
2459;DHT22;1241;50.920;6.936;2022-12-10T07:20:53;2.20;99.90
2459;DHT22;1241;50.920;6.936;2022-12-10T07:23:19;2.20;99.90
2459;DHT22;1241;50.920;6.936;2022-12-10T07:25:45;2.10;99.90
2459;DHT22;1241;50.920;6.936;2022-12-10T07:28:11;2.20;99.90
2459;DHT22;1241;50.920;6.936;2022-12-10T07:30:37;2.20;99.90
2459;DHT22;1241;50.920;6.936;2022-12-10T07:33:03;2.20;99.90
2459;DHT22;1241;50.920;6.936;2022-12-10T07:35:28;2.20;99.90
2459;DHT22;1241;50.920;6.936;2022-12-10T07:37:54;2.20;99.90
2459;DHT22;1241;50.920;6.936;2022-12-10T07:40:20;2.30;99.90
2459;DHT22;1241;50.920;6.936;2022-12-10T07:42:46;2.30;99.90
2459;DHT22;1241;50.920;6.936;2022-12-10T07:45:11;2.30;99.90
2459;DHT22;1241;50.920;6.936;2022-12-10T07:47:38;2.30;99.90
2459;DHT22;1241;50.920;6.936;2022-12-10T07:50:05;2.40;99.90
2459;DHT22;1241;50.920;6.936;2022-12-10T07:52:31;2.30;99.90
2459;DHT22;1241;50.920;6.936;2022-12-10T07:54:57;2.30;99.90
2459;DHT22;1241;50.920;6.936;2022-12-10T07:57:22;2.20;99.90
2459;DHT22;1241;50.920;6.936;2022-12-10T07:59:48;2.20;99.90
2459;DHT22;1241;50.920;6.936;2022-12-10T08:02:14;2.20;99.90
2459;DHT22;1241;50.920;6.936;2022-12-10T08:04:39;2.20;99.90
2459;DHT22;1241;50.920;6.936;2022-12-10T08:07:05;2.20;99.90
2459;DHT22;1241;50.920;6.936;2022-12-10T08:09:32;2.20;99.90
2459;DHT22;1241;50.920;6.936;2022-12-10T08:11:58;2.20;99.90
2459;DHT22;1241;50.920;6.936;2022-12-10T08:14:24;2.30;99.90
2459;DHT22;1241;50.920;6.936;2022-12-10T08:16:49;2.40;99.90
2459;DHT22;1241;50.920;6.936;2022-12-10T08:19:15;2.30;99.90
2459;DHT22;1241;50.920;6.936;2022-12-10T08:21:42;2.40;99.90
2459;DHT22;1241;50.920;6.936;2022-12-10T08:24:08;2.50;99.90
2459;DHT22;1241;50.920;6.936;2022-12-10T08:26:34;2.60;99.90
2459;DHT22;1241;50.920;6.936;2022-12-10T08:29:00;2.50;99.90
2459;DHT22;1241;50.920;6.936;2022-12-10T08:31:27;2.50;99.90
2459;DHT22;1241;50.920;6.936;2022-12-10T08:33:53;2.40;99.90
2459;DHT22;1241;50.920;6.936;2022-12-10T08:36:20;2.30;99.90
2459;DHT22;1241;50.920;6.936;2022-12-10T08:38:46;2.30;99.90
2459;DHT22;1241;50.920;6.936;2022-12-10T08:41:17;2.40;99.90
2459;DHT22;1241;50.920;6.936;2022-12-10T08:43:43;2.60;99.90
2459;DHT22;1241;50.920;6.936;2022-12-10T08:46:11;2.80;99.90
2459;DHT22;1241;50.920;6.936;2022-12-10T08:48:37;2.80;99.90
2459;DHT22;1241;50.920;6.936;2022-12-10T08:51:05;2.90;99.90
2459;DHT22;1241;50.920;6.936;2022-12-10T08:53:31;2.90;99.90
2459;DHT22;1241;50.920;6.936;2022-12-10T08:55:57;2.80;99.90
2459;DHT22;1241;50.920;6.936;2022-12-10T08:58:23;2.80;99.90
2459;DHT22;1241;50.920;6.936;2022-12-10T09:00:49;2.90;99.90
2459;DHT22;1241;50.920;6.936;2022-12-10T09:03:16;3.10;99.90
2459;DHT22;1241;50.920;6.936;2022-12-10T09:05:42;3.20;99.90
2459;DHT22;1241;50.920;6.936;2022-12-10T09:08:08;3.40;99.90
2459;DHT22;1241;50.920;6.936;2022-12-10T09:10:36;3.30;99.90
2459;DHT22;1241;50.920;6.936;2022-12-10T09:13:02;3.20;99.90
2459;DHT22;1241;50.920;6.936;2022-12-10T09:15:28;3.40;99.90
2459;DHT22;1241;50.920;6.936;2022-12-10T09:17:54;3.50;99.90
2459;DHT22;1241;50.920;6.936;2022-12-10T09:20:20;3.70;99.90
2459;DHT22;1241;50.920;6.936;2022-12-10T09:22:45;3.70;99.90
2459;DHT22;1241;50.920;6.936;2022-12-10T09:25:11;3.80;99.90
2459;DHT22;1241;50.920;6.936;2022-12-10T09:27:41;3.90;99.90
2459;DHT22;1241;50.920;6.936;2022-12-10T09:30:07;3.90;99.90
2459;DHT22;1241;50.920;6.936;2022-12-10T09:32:33;3.70;99.90
2459;DHT22;1241;50.920;6.936;2022-12-10T09:34:59;3.70;99.90
2459;DHT22;1241;50.920;6.936;2022-12-10T09:37:25;3.70;99.90
2459;DHT22;1241;50.920;6.936;2022-12-10T09:39:51;3.70;99.90
2459;DHT22;1241;50.920;6.936;2022-12-10T09:42:30;3.70;99.90
2459;DHT22;1241;50.920;6.936;2022-12-10T09:45:09;3.90;99.90
2459;DHT22;1241;50.920;6.936;2022-12-10T09:50:42;4.40;99.90
2459;DHT22;1241;50.920;6.936;2022-12-10T09:53:13;4.60;99.90
2459;DHT22;1241;50.920;6.936;2022-12-10T09:55:45;4.70;99.90
2459;DHT22;1241;50.920;6.936;2022-12-10T09:58:18;4.70;99.90
2459;DHT22;1241;50.920;6.936;2022-12-10T10:00:48;4.80;99.90
2459;DHT22;1241;50.920;6.936;2022-12-10T10:03:16;5.00;99.90
2459;DHT22;1241;50.920;6.936;2022-12-10T10:10:40;4.80;99.90
2459;DHT22;1241;50.920;6.936;2022-12-10T10:15:41;4.40;99.90
2459;DHT22;1241;50.920;6.936;2022-12-10T10:18:18;4.20;99.90
2459;DHT22;1241;50.920;6.936;2022-12-10T10:20:46;4.10;99.90
2459;DHT22;1241;50.920;6.936;2022-12-10T10:23:14;4.00;99.90
2459;DHT22;1241;50.920;6.936;2022-12-10T10:25:40;3.90;99.90
2459;DHT22;1241;50.920;6.936;2022-12-10T10:28:10;3.80;99.90
2459;DHT22;1241;50.920;6.936;2022-12-10T10:30:41;3.70;99.90
2459;DHT22;1241;50.920;6.936;2022-12-10T10:33:09;3.70;99.90
2459;DHT22;1241;50.920;6.936;2022-12-10T10:35:56;3.60;99.90
2459;DHT22;1241;50.920;6.936;2022-12-10T10:38:28;3.60;99.90
2459;DHT22;1241;50.920;6.936;2022-12-10T10:40:59;3.80;99.90
2459;DHT22;1241;50.920;6.936;2022-12-10T10:43:34;3.90;99.90
2459;DHT22;1241;50.920;6.936;2022-12-10T10:46:17;4.00;99.90
2459;DHT22;1241;50.920;6.936;2022-12-10T10:48:44;4.10;99.90
2459;DHT22;1241;50.920;6.936;2022-12-10T10:53:53;4.10;99.90
2459;DHT22;1241;50.920;6.936;2022-12-10T10:56:31;4.00;99.90
2459;DHT22;1241;50.920;6.936;2022-12-10T11:01:57;4.10;99.90
2459;DHT22;1241;50.920;6.936;2022-12-10T11:04:29;4.00;99.90
2459;DHT22;1241;50.920;6.936;2022-12-10T11:07:00;4.00;99.90
2459;DHT22;1241;50.920;6.936;2022-12-10T11:09:32;4.00;99.90
2459;DHT22;1241;50.920;6.936;2022-12-10T11:14:53;3.90;99.90
2459;DHT22;1241;50.920;6.936;2022-12-10T11:17:21;3.90;99.90
2459;DHT22;1241;50.920;6.936;2022-12-10T11:22:30;3.90;99.90
2459;DHT22;1241;50.920;6.936;2022-12-10T11:24:57;3.90;99.90
2459;DHT22;1241;50.920;6.936;2022-12-10T11:30:18;4.10;99.90
2459;DHT22;1241;50.920;6.936;2022-12-10T11:41:41;4.60;99.90
2459;DHT22;1241;50.920;6.936;2022-12-10T11:58:16;4.00;99.90
2459;DHT22;1241;50.920;6.936;2022-12-10T12:00:57;3.90;99.90
2459;DHT22;1241;50.920;6.936;2022-12-10T12:04:00;4.00;99.90
2459;DHT22;1241;50.920;6.936;2022-12-10T12:19:53;3.40;99.90
2459;DHT22;1241;50.920;6.936;2022-12-10T12:22:25;3.60;99.90
2459;DHT22;1241;50.920;6.936;2022-12-10T12:25:05;3.40;99.90
2459;DHT22;1241;50.920;6.936;2022-12-10T12:27:39;3.30;99.90
2459;DHT22;1241;50.920;6.936;2022-12-10T12:30:13;3.30;99.90
2459;DHT22;1241;50.920;6.936;2022-12-10T12:38:22;3.70;99.90
2459;DHT22;1241;50.920;6.936;2022-12-10T12:43:21;3.60;99.90
2459;DHT22;1241;50.920;6.936;2022-12-10T12:45:49;3.50;99.90
2459;DHT22;1241;50.920;6.936;2022-12-10T12:48:38;3.50;99.90
2459;DHT22;1241;50.920;6.936;2022-12-10T12:53:40;3.80;99.90
2459;DHT22;1241;50.920;6.936;2022-12-10T13:01:58;4.10;99.90
2459;DHT22;1241;50.920;6.936;2022-12-10T13:04:26;4.10;99.90
2459;DHT22;1241;50.920;6.936;2022-12-10T13:09:50;4.30;99.90
2459;DHT22;1241;50.920;6.936;2022-12-10T13:12:32;4.40;99.90
2459;DHT22;1241;50.920;6.936;2022-12-10T13:20:48;4.80;99.90
2459;DHT22;1241;50.920;6.936;2022-12-10T13:28:50;5.10;99.90
2459;DHT22;1241;50.920;6.936;2022-12-10T13:36:37;5.10;99.90
2459;DHT22;1241;50.920;6.936;2022-12-10T13:39:22;5.20;99.90
2459;DHT22;1241;50.920;6.936;2022-12-10T13:47:46;4.80;99.90
2459;DHT22;1241;50.920;6.936;2022-12-10T13:50:41;4.80;99.90
2459;DHT22;1241;50.920;6.936;2022-12-10T14:01:26;4.80;99.90
2459;DHT22;1241;50.920;6.936;2022-12-10T14:06:40;4.80;99.90
2459;DHT22;1241;50.920;6.936;2022-12-10T14:09:19;4.80;99.90
2459;DHT22;1241;50.920;6.936;2022-12-10T14:11:51;4.80;99.90
2459;DHT22;1241;50.920;6.936;2022-12-10T14:14:28;4.70;99.90
2459;DHT22;1241;50.920;6.936;2022-12-10T14:17:00;4.50;99.90
2459;DHT22;1241;50.920;6.936;2022-12-10T14:19:27;4.50;99.90
2459;DHT22;1241;50.920;6.936;2022-12-10T14:21:55;4.50;99.90
2459;DHT22;1241;50.920;6.936;2022-12-10T14:24:33;4.50;99.90
2459;DHT22;1241;50.920;6.936;2022-12-10T14:27:19;4.50;99.90
2459;DHT22;1241;50.920;6.936;2022-12-10T14:29:50;4.50;99.90
2459;DHT22;1241;50.920;6.936;2022-12-10T14:32:19;4.50;99.90
2459;DHT22;1241;50.920;6.936;2022-12-10T14:34:54;4.50;99.90
2459;DHT22;1241;50.920;6.936;2022-12-10T14:37:27;4.50;99.90
2459;DHT22;1241;50.920;6.936;2022-12-10T14:39:54;4.50;99.90
2459;DHT22;1241;50.920;6.936;2022-12-10T14:42:20;4.30;99.90
2459;DHT22;1241;50.920;6.936;2022-12-10T14:44:51;4.40;99.90
2459;DHT22;1241;50.920;6.936;2022-12-10T14:47:20;4.40;99.90
2459;DHT22;1241;50.920;6.936;2022-12-10T14:49:48;4.30;99.90
2459;DHT22;1241;50.920;6.936;2022-12-10T14:52:20;4.40;99.90
2459;DHT22;1241;50.920;6.936;2022-12-10T14:54:47;4.40;99.90
2459;DHT22;1241;50.920;6.936;2022-12-10T14:57:30;4.40;99.90
2459;DHT22;1241;50.920;6.936;2022-12-10T15:00:22;4.30;99.90
2459;DHT22;1241;50.920;6.936;2022-12-10T15:02:53;4.30;99.90
2459;DHT22;1241;50.920;6.936;2022-12-10T15:05:23;4.30;99.90
2459;DHT22;1241;50.920;6.936;2022-12-10T15:08:00;4.20;99.90
2459;DHT22;1241;50.920;6.936;2022-12-10T15:12:55;4.20;99.90
2459;DHT22;1241;50.920;6.936;2022-12-10T15:15:34;4.30;99.90
2459;DHT22;1241;50.920;6.936;2022-12-10T15:23:59;4.10;99.90
2459;DHT22;1241;50.920;6.936;2022-12-10T15:28:33;4.10;99.90
2459;DHT22;1241;50.920;6.936;2022-12-10T15:34:05;4.00;99.90
2459;DHT22;1241;50.920;6.936;2022-12-10T15:36:42;4.00;99.90
2459;DHT22;1241;50.920;6.936;2022-12-10T15:41:43;3.90;99.90
2459;DHT22;1241;50.920;6.936;2022-12-10T15:44:32;3.80;99.90
2459;DHT22;1241;50.920;6.936;2022-12-10T15:49:24;3.80;99.90
2459;DHT22;1241;50.920;6.936;2022-12-10T15:51:50;3.80;99.90
2459;DHT22;1241;50.920;6.936;2022-12-10T15:54:33;3.80;99.90
2459;DHT22;1241;50.920;6.936;2022-12-10T15:56:59;3.80;99.90
2459;DHT22;1241;50.920;6.936;2022-12-10T15:59:25;3.70;99.90
2459;DHT22;1241;50.920;6.936;2022-12-10T16:01:51;3.70;99.90
2459;DHT22;1241;50.920;6.936;2022-12-10T16:04:17;3.70;99.90
2459;DHT22;1241;50.920;6.936;2022-12-10T16:06:42;3.70;99.90
2459;DHT22;1241;50.920;6.936;2022-12-10T16:09:09;3.70;99.90
2459;DHT22;1241;50.920;6.936;2022-12-10T16:11:35;3.60;99.90
2459;DHT22;1241;50.920;6.936;2022-12-10T16:14:01;3.60;99.90
2459;DHT22;1241;50.920;6.936;2022-12-10T16:16:28;3.60;99.90
2459;DHT22;1241;50.920;6.936;2022-12-10T16:18:55;3.60;99.90
2459;DHT22;1241;50.920;6.936;2022-12-10T16:21:21;3.60;99.90
2459;DHT22;1241;50.920;6.936;2022-12-10T16:23:46;3.60;99.90
2459;DHT22;1241;50.920;6.936;2022-12-10T16:26:16;3.60;99.90
2459;DHT22;1241;50.920;6.936;2022-12-10T16:28:42;3.50;99.90
2459;DHT22;1241;50.920;6.936;2022-12-10T16:31:12;3.50;99.90
2459;DHT22;1241;50.920;6.936;2022-12-10T16:33:37;3.60;99.90
2459;DHT22;1241;50.920;6.936;2022-12-10T16:36:03;3.60;99.90
2459;DHT22;1241;50.920;6.936;2022-12-10T16:38:29;3.50;99.90
2459;DHT22;1241;50.920;6.936;2022-12-10T16:40:55;3.50;99.90
2459;DHT22;1241;50.920;6.936;2022-12-10T16:43:22;3.50;99.90
2459;DHT22;1241;50.920;6.936;2022-12-10T16:45:49;3.50;99.90
2459;DHT22;1241;50.920;6.936;2022-12-10T16:48:15;3.40;99.90
2459;DHT22;1241;50.920;6.936;2022-12-10T16:50:41;3.40;99.90
2459;DHT22;1241;50.920;6.936;2022-12-10T16:53:25;3.40;99.90
2459;DHT22;1241;50.920;6.936;2022-12-10T16:55:51;3.40;99.90
2459;DHT22;1241;50.920;6.936;2022-12-10T16:58:17;3.30;99.90
2459;DHT22;1241;50.920;6.936;2022-12-10T17:00:45;3.30;99.90
2459;DHT22;1241;50.920;6.936;2022-12-10T17:03:13;3.30;99.90
2459;DHT22;1241;50.920;6.936;2022-12-10T17:05:52;3.40;99.90
2459;DHT22;1241;50.920;6.936;2022-12-10T17:08:19;3.40;99.90
2459;DHT22;1241;50.920;6.936;2022-12-10T17:10:45;3.40;99.90
2459;DHT22;1241;50.920;6.936;2022-12-10T17:13:31;3.40;99.90
2459;DHT22;1241;50.920;6.936;2022-12-10T17:15:58;3.40;99.90
2459;DHT22;1241;50.920;6.936;2022-12-10T17:18:24;3.50;99.90
2459;DHT22;1241;50.920;6.936;2022-12-10T17:20:49;3.60;99.90
2459;DHT22;1241;50.920;6.936;2022-12-10T17:23:15;3.60;99.90
2459;DHT22;1241;50.920;6.936;2022-12-10T17:25:42;3.60;99.90
2459;DHT22;1241;50.920;6.936;2022-12-10T17:28:17;3.50;99.90
2459;DHT22;1241;50.920;6.936;2022-12-10T17:30:43;3.50;99.90
2459;DHT22;1241;50.920;6.936;2022-12-10T17:33:16;3.60;99.90
2459;DHT22;1241;50.920;6.936;2022-12-10T17:35:44;3.60;99.90
2459;DHT22;1241;50.920;6.936;2022-12-10T17:38:14;3.60;99.90
2459;DHT22;1241;50.920;6.936;2022-12-10T17:40:40;3.60;99.90
2459;DHT22;1241;50.920;6.936;2022-12-10T17:43:07;3.60;99.90
2459;DHT22;1241;50.920;6.936;2022-12-10T17:45:33;3.50;99.90
2459;DHT22;1241;50.920;6.936;2022-12-10T17:47:58;3.60;99.90
2459;DHT22;1241;50.920;6.936;2022-12-10T17:52:50;3.50;99.90
2459;DHT22;1241;50.920;6.936;2022-12-10T17:55:16;3.50;99.90
2459;DHT22;1241;50.920;6.936;2022-12-10T17:57:42;3.60;99.90
2459;DHT22;1241;50.920;6.936;2022-12-10T18:00:14;3.50;99.90
2459;DHT22;1241;50.920;6.936;2022-12-10T18:02:40;3.50;99.90
2459;DHT22;1241;50.920;6.936;2022-12-10T18:05:06;3.50;99.90
2459;DHT22;1241;50.920;6.936;2022-12-10T18:07:32;3.50;99.90
2459;DHT22;1241;50.920;6.936;2022-12-10T18:09:58;3.40;99.90
2459;DHT22;1241;50.920;6.936;2022-12-10T18:12:24;3.40;99.90
2459;DHT22;1241;50.920;6.936;2022-12-10T18:14:49;3.30;99.90
2459;DHT22;1241;50.920;6.936;2022-12-10T18:17:16;3.30;99.90
2459;DHT22;1241;50.920;6.936;2022-12-10T18:19:42;3.30;99.90
2459;DHT22;1241;50.920;6.936;2022-12-10T18:22:08;3.40;99.90
2459;DHT22;1241;50.920;6.936;2022-12-10T18:24:34;3.30;99.90
2459;DHT22;1241;50.920;6.936;2022-12-10T18:27:00;3.30;99.90
2459;DHT22;1241;50.920;6.936;2022-12-10T18:29:27;3.30;99.90
2459;DHT22;1241;50.920;6.936;2022-12-10T18:31:53;3.20;99.90
2459;DHT22;1241;50.920;6.936;2022-12-10T18:34:19;3.20;99.90
2459;DHT22;1241;50.920;6.936;2022-12-10T18:36:46;3.30;99.90
2459;DHT22;1241;50.920;6.936;2022-12-10T18:39:23;3.40;99.90
2459;DHT22;1241;50.920;6.936;2022-12-10T18:41:49;3.40;99.90
2459;DHT22;1241;50.920;6.936;2022-12-10T18:44:16;3.40;99.90
2459;DHT22;1241;50.920;6.936;2022-12-10T18:46:45;3.30;99.90
2459;DHT22;1241;50.920;6.936;2022-12-10T18:49:14;3.30;99.90
2459;DHT22;1241;50.920;6.936;2022-12-10T18:51:41;3.20;99.90
2459;DHT22;1241;50.920;6.936;2022-12-10T18:54:07;3.20;99.90
2459;DHT22;1241;50.920;6.936;2022-12-10T18:56:33;3.10;99.90
2459;DHT22;1241;50.920;6.936;2022-12-10T18:59:00;3.00;99.90